createdAt,value
2022-08-26T00:01:41.704Z,11.70
2022-08-26T00:03:54.990Z,13.30
2022-08-26T00:06:03.857Z,11.98
2022-08-26T00:08:13.201Z,11.25
2022-08-26T00:10:22.925Z,11.60
2022-08-26T00:12:37.624Z,11.70
2022-08-26T00:14:46.178Z,10.98
2022-08-26T00:16:55.308Z,11.13
2022-08-26T00:19:05.976Z,11.45
2022-08-26T00:21:16.151Z,11.68
2022-08-26T00:23:24.397Z,12.88
2022-08-26T00:25:32.900Z,12.23
2022-08-26T00:27:41.280Z,11.90
2022-08-26T00:29:49.210Z,11.55
2022-08-26T00:31:57.203Z,12.88
2022-08-26T00:34:09.482Z,12.85
2022-08-26T00:36:20.297Z,11.88
2022-08-26T00:38:28.750Z,12.65
2022-08-26T00:40:40.742Z,11.52
2022-08-26T00:42:48.895Z,11.90
2022-08-26T00:44:57.746Z,11.88
2022-08-26T00:47:10.582Z,13.02
2022-08-26T00:49:26.300Z,12.68
2022-08-26T00:51:46.622Z,12.40
2022-08-26T00:54:00.488Z,12.80
2022-08-26T00:56:12.481Z,12.43
2022-08-26T00:58:21.714Z,11.30
2022-08-26T01:00:31.656Z,12.68
2022-08-26T01:02:39.903Z,12.60
2022-08-26T01:05:13.345Z,13.40
2022-08-26T01:07:21.505Z,12.60
2022-08-26T01:09:29.980Z,12.85
2022-08-26T01:11:38.230Z,12.80
2022-08-26T01:13:47.593Z,12.60
2022-08-26T01:16:00.269Z,12.43
2022-08-26T01:18:10.414Z,13.60
2022-08-26T01:20:34.183Z,11.88
2022-08-26T01:22:53.280Z,12.90
2022-08-26T01:25:04.973Z,15.43
2022-08-26T01:27:16.286Z,13.20
2022-08-26T01:29:24.282Z,14.30
2022-08-26T01:31:36.163Z,14.45
2022-08-26T01:33:51.016Z,14.68
2022-08-26T01:35:58.965Z,14.68
2022-08-26T01:38:14.109Z,14.55
2022-08-26T01:40:26.146Z,13.90
2022-08-26T01:42:34.391Z,15.20
2022-08-26T01:44:47.901Z,15.40
2022-08-26T01:46:57.501Z,13.70
2022-08-26T01:49:09.677Z,14.75
2022-08-26T01:51:20.118Z,14.20
2022-08-26T01:53:31.129Z,14.15
2022-08-26T01:55:42.091Z,14.88
2022-08-26T01:57:54.006Z,15.48
2022-08-26T02:00:08.853Z,14.40
2022-08-26T02:02:21.032Z,14.90
2022-08-26T02:04:33.839Z,14.85
2022-08-26T02:06:44.857Z,14.85
2022-08-26T02:09:08.101Z,15.55
2022-08-26T02:11:22.380Z,15.52
2022-08-26T02:13:32.923Z,13.98
2022-08-26T02:15:43.737Z,14.50
2022-08-26T02:17:53.617Z,16.58
2022-08-26T02:20:04.879Z,15.30
2022-08-26T02:22:25.241Z,15.82
2022-08-26T02:24:50.675Z,16.50
2022-08-26T02:26:59.519Z,15.90
2022-08-26T02:29:12.087Z,15.65
2022-08-26T02:31:20.338Z,15.65
2022-08-26T02:33:30.821Z,14.88
2022-08-26T02:35:40.061Z,15.05
2022-08-26T02:37:49.513Z,14.98
2022-08-26T02:40:00.643Z,14.25
2022-08-26T02:42:08.793Z,14.45
2022-08-26T02:44:16.944Z,14.68
2022-08-26T02:46:27.769Z,14.60
2022-08-26T02:48:38.634Z,14.98
2022-08-26T02:50:46.886Z,14.77
2022-08-26T02:52:57.144Z,15.48
2022-08-26T02:55:11.020Z,14.32
2022-08-26T02:57:19.346Z,14.65
2022-08-26T02:59:31.472Z,14.68
2022-08-26T03:01:39.426Z,15.00
2022-08-26T03:03:47.372Z,15.63
2022-08-26T03:05:57.762Z,16.60
2022-08-26T03:08:06.198Z,16.05
2022-08-26T03:10:16.713Z,15.88
2022-08-26T03:12:25.630Z,16.38
2022-08-26T03:14:33.732Z,17.83
2022-08-26T03:16:41.724Z,16.95
2022-08-26T03:18:52.305Z,17.02
2022-08-26T03:21:00.541Z,15.73
2022-08-26T03:23:09.034Z,15.77
2022-08-26T03:25:21.008Z,14.65
2022-08-26T03:27:29.451Z,15.02
2022-08-26T03:29:55.474Z,14.90
2022-08-26T03:32:04.192Z,14.82
2022-08-26T03:34:12.059Z,14.05
2022-08-26T03:36:20.366Z,14.65
2022-08-26T03:38:28.164Z,15.90
2022-08-26T03:40:39.889Z,15.40
2022-08-26T03:42:48.674Z,15.88
2022-08-26T03:44:57.243Z,14.80
2022-08-26T03:47:05.214Z,15.65
2022-08-26T03:49:14.239Z,15.10
2022-08-26T03:51:23.151Z,16.20
2022-08-26T03:53:32.802Z,14.90
2022-08-26T03:55:46.640Z,15.20
2022-08-26T03:57:57.204Z,16.48
2022-08-26T04:00:07.556Z,14.65
2022-08-26T04:02:16.480Z,16.00
2022-08-26T04:04:25.817Z,14.88
2022-08-26T04:06:36.166Z,16.10
2022-08-26T04:09:02.712Z,16.33
2022-08-26T04:11:22.643Z,16.25
2022-08-26T04:13:32.845Z,16.15
2022-08-26T04:15:40.817Z,16.85
2022-08-26T04:17:48.734Z,17.00
2022-08-26T04:19:56.940Z,16.38
2022-08-26T04:22:06.576Z,17.42
2022-08-26T04:24:16.555Z,17.08
2022-08-26T04:26:29.027Z,16.60
2022-08-26T04:28:37.129Z,17.35
2022-08-26T04:30:45.443Z,16.70
2022-08-26T04:32:53.444Z,16.17
2022-08-26T04:35:01.961Z,16.27
2022-08-26T04:37:10.783Z,15.13
2022-08-26T04:39:20.419Z,15.30
2022-08-26T04:41:31.692Z,15.50
2022-08-26T04:43:39.715Z,15.25
2022-08-26T04:45:47.591Z,16.27
2022-08-26T04:47:57.527Z,15.43
2022-08-26T04:50:06.246Z,16.45
2022-08-26T04:52:15.585Z,16.20
2022-08-26T04:54:25.193Z,16.00
2022-08-26T04:56:38.748Z,16.52
2022-08-26T04:58:46.790Z,15.82
2022-08-26T05:00:56.907Z,16.00
2022-08-26T05:03:05.113Z,15.27
2022-08-26T05:05:14.240Z,15.65
2022-08-26T05:07:22.348Z,15.05
2022-08-26T05:09:30.755Z,13.90
2022-08-26T05:11:41.433Z,14.02
2022-08-26T05:13:49.837Z,14.25
2022-08-26T05:15:58.221Z,13.45
2022-08-26T05:18:11.517Z,12.50
2022-08-26T05:20:25.188Z,13.15
2022-08-26T05:22:34.086Z,11.82
2022-08-26T05:24:43.355Z,12.25
2022-08-26T05:26:53.873Z,11.55
2022-08-26T05:29:01.724Z,11.48
2022-08-26T05:31:17.729Z,12.27
2022-08-26T05:33:26.508Z,11.07
2022-08-26T05:35:34.848Z,10.00
2022-08-26T05:37:43.019Z,10.43
2022-08-26T05:39:51.346Z,11.00
2022-08-26T05:42:04.407Z,10.70
2022-08-26T05:44:15.543Z,10.00
2022-08-26T05:46:24.509Z,10.13
2022-08-26T05:48:34.521Z,10.10
2022-08-26T05:50:43.824Z,10.03
2022-08-26T05:52:52.159Z,10.20
2022-08-26T05:55:00.096Z,10.80
2022-08-26T05:57:12.180Z,11.77
2022-08-26T05:59:24.115Z,10.93
2022-08-26T06:01:35.832Z,11.40
2022-08-26T06:03:46.603Z,11.55
2022-08-26T06:05:57.376Z,12.65
2022-08-26T06:08:14.757Z,12.77
2022-08-26T06:10:33.024Z,11.55
2022-08-26T06:12:44.184Z,12.15
2022-08-26T06:14:52.127Z,11.57
2022-08-26T06:17:00.927Z,11.40
2022-08-26T06:19:11.515Z,10.38
2022-08-26T06:21:22.001Z,10.87
2022-08-26T06:23:44.588Z,10.70
2022-08-26T06:25:53.245Z,9.40
2022-08-26T06:28:04.034Z,10.50
2022-08-26T06:30:13.131Z,10.30
2022-08-26T06:32:21.371Z,10.30
2022-08-26T06:34:31.324Z,9.23
2022-08-26T06:36:39.623Z,11.00
2022-08-26T06:38:47.905Z,10.00
2022-08-26T06:40:59.859Z,10.80
2022-08-26T06:43:10.410Z,11.10
2022-08-26T06:45:20.594Z,10.33
2022-08-26T06:47:29.208Z,11.07
2022-08-26T06:49:37.227Z,10.90
2022-08-26T06:51:46.987Z,10.73
2022-08-26T06:53:59.604Z,10.00
2022-08-26T06:56:09.644Z,10.87
2022-08-26T06:58:20.242Z,9.90
2022-08-26T07:00:28.445Z,9.80
2022-08-26T07:02:37.487Z,10.53
2022-08-26T07:04:45.438Z,10.60
2022-08-26T07:06:56.819Z,10.53
2022-08-26T07:09:09.762Z,10.50
2022-08-26T07:11:19.058Z,10.87
2022-08-26T07:13:30.655Z,9.97
2022-08-26T07:15:42.802Z,11.30
2022-08-26T07:17:51.259Z,11.23
2022-08-26T07:19:59.565Z,10.93
2022-08-26T07:22:09.344Z,10.80
2022-08-26T07:24:18.437Z,11.10
2022-08-26T07:26:30.840Z,9.40
2022-08-26T07:28:42.047Z,11.23
2022-08-26T07:30:50.134Z,9.63
2022-08-26T07:32:59.624Z,8.97
2022-08-26T07:35:09.234Z,9.47
2022-08-26T07:37:17.519Z,9.67
2022-08-26T07:39:27.272Z,9.77
2022-08-26T07:41:36.702Z,10.13
2022-08-26T07:43:48.565Z,9.40
2022-08-26T07:45:56.752Z,9.53
2022-08-26T07:48:05.385Z,8.93
2022-08-26T07:50:14.102Z,8.77
2022-08-26T07:52:26.581Z,8.70
2022-08-26T07:54:37.414Z,9.03
2022-08-26T07:56:46.291Z,9.50
2022-08-26T07:58:57.064Z,9.20
2022-08-26T08:01:05.121Z,9.20
2022-08-26T08:03:17.877Z,9.13
2022-08-26T08:05:33.607Z,10.70
2022-08-26T08:07:45.403Z,10.30
2022-08-26T08:09:53.457Z,10.00
2022-08-26T08:12:01.545Z,9.80
2022-08-26T08:14:12.236Z,9.80
2022-08-26T08:16:21.668Z,9.93
2022-08-26T08:18:32.649Z,10.10
2022-08-26T08:20:42.304Z,10.90
2022-08-26T08:22:53.429Z,9.97
2022-08-26T08:25:02.940Z,10.40
2022-08-26T08:27:14.161Z,10.40
2022-08-26T08:29:25.009Z,10.20
2022-08-26T08:34:02.315Z,9.70
2022-08-26T08:36:10.827Z,9.80
2022-08-26T08:38:28.472Z,10.20
2022-08-26T08:40:37.669Z,9.73
2022-08-26T08:42:53.824Z,10.63
2022-08-26T08:45:10.822Z,9.63
2022-08-26T08:47:24.219Z,10.20
2022-08-26T08:49:34.072Z,10.33
2022-08-26T08:51:50.048Z,10.83
2022-08-26T08:53:59.076Z,10.50
2022-08-26T08:56:21.375Z,9.73
2022-08-26T08:58:38.414Z,10.83
2022-08-26T09:00:54.403Z,11.00
2022-08-26T09:03:10.910Z,9.70
2022-08-26T09:05:24.507Z,10.73
2022-08-26T09:07:37.049Z,11.13
2022-08-26T09:09:49.313Z,10.10
2022-08-26T09:11:59.415Z,10.67
2022-08-26T09:14:11.103Z,10.07
2022-08-26T09:16:27.059Z,10.10
2022-08-26T09:18:47.563Z,11.47
2022-08-26T09:20:59.770Z,10.20
2022-08-26T09:23:07.705Z,10.07
2022-08-26T09:25:18.079Z,10.10
2022-08-26T09:27:41.051Z,8.83
2022-08-26T09:29:50.372Z,8.03
2022-08-26T09:32:21.280Z,8.17
2022-08-26T09:34:30.888Z,8.00
2022-08-26T09:36:42.623Z,7.90
2022-08-26T09:38:52.509Z,8.10
2022-08-26T09:41:02.350Z,9.03
2022-08-26T09:43:22.192Z,7.60
2022-08-26T09:45:31.979Z,7.77
2022-08-26T09:47:54.709Z,7.73
2022-08-26T09:50:12.628Z,7.63
2022-08-26T09:52:26.791Z,8.13
2022-08-26T09:54:38.613Z,8.33
2022-08-26T09:56:48.437Z,8.47
2022-08-26T09:58:57.831Z,9.03
2022-08-26T10:01:10.234Z,8.90
2022-08-26T10:03:28.611Z,8.87
2022-08-26T10:05:45.535Z,8.77
2022-08-26T10:07:54.417Z,9.33
2022-08-26T10:10:04.391Z,10.43
2022-08-26T10:12:18.270Z,9.43
2022-08-26T10:14:30.852Z,10.17
2022-08-26T10:16:53.576Z,9.20
2022-08-26T10:19:11.470Z,8.83
2022-08-26T10:21:24.474Z,8.70
2022-08-26T10:23:35.824Z,9.20
2022-08-26T10:25:58.996Z,11.80
2022-08-26T10:28:11.182Z,8.40
2022-08-26T10:30:21.215Z,9.00
2022-08-26T10:32:35.811Z,19.37
2022-08-26T10:34:51.733Z,10.23
2022-08-26T10:37:13.744Z,8.93
2022-08-26T10:39:29.272Z,14.53
2022-08-26T10:41:44.269Z,8.87
2022-08-26T10:43:57.989Z,8.97
2022-08-26T10:46:11.281Z,9.03
2022-08-26T10:48:23.565Z,8.43
2022-08-26T10:50:38.731Z,8.80
2022-08-26T10:53:01.350Z,8.20
2022-08-26T10:55:19.243Z,9.33
2022-08-26T10:57:38.263Z,10.77
2022-08-26T10:59:55.584Z,8.27
2022-08-26T11:02:08.995Z,7.73
2022-08-26T11:04:47.098Z,7.97
2022-08-26T11:07:25.708Z,8.73
2022-08-26T11:09:50.801Z,9.53
2022-08-26T11:11:58.657Z,7.53
2022-08-26T11:14:08.257Z,7.07
2022-08-26T11:16:35.528Z,6.90
2022-08-26T11:18:54.791Z,7.67
2022-08-26T11:21:02.734Z,7.20
2022-08-26T11:23:50.716Z,7.80
2022-08-26T11:26:37.693Z,8.63
2022-08-26T11:28:50.672Z,8.43
2022-08-26T11:31:00.056Z,7.67
2022-08-26T11:33:09.268Z,10.00
2022-08-26T11:35:53.295Z,9.30
2022-08-26T11:38:04.498Z,9.43
2022-08-26T11:40:17.345Z,10.07
2022-08-26T11:42:37.912Z,10.07
2022-08-26T11:44:49.625Z,11.13
2022-08-26T11:47:00.323Z,11.27
2022-08-26T11:49:09.987Z,10.63
2022-08-26T11:51:25.930Z,10.33
2022-08-26T11:53:37.179Z,9.97
2022-08-26T11:55:47.289Z,10.80
2022-08-26T11:58:04.629Z,10.47
2022-08-26T12:00:20.856Z,11.90
2022-08-26T12:02:31.346Z,10.40
2022-08-26T12:04:44.607Z,11.27
2022-08-26T12:06:54.392Z,13.50
2022-08-26T12:09:04.605Z,11.50
2022-08-26T12:11:23.217Z,9.70
2022-08-26T12:13:33.971Z,9.47
2022-08-26T12:15:42.494Z,10.03
2022-08-26T12:17:54.360Z,10.53
2022-08-26T12:20:02.872Z,11.00
2022-08-26T12:22:20.962Z,10.50
2022-08-26T12:24:29.345Z,12.50
2022-08-26T12:26:40.084Z,11.00
2022-08-26T12:28:55.222Z,9.60
2022-08-26T12:31:05.168Z,8.30
2022-08-26T12:33:22.259Z,9.27
2022-08-26T12:35:31.436Z,9.50
2022-08-26T12:37:44.894Z,9.80
2022-08-26T12:39:53.440Z,12.27
2022-08-26T12:42:03.097Z,10.97
2022-08-26T12:44:34.139Z,10.23
2022-08-26T12:46:43.916Z,10.10
2022-08-26T12:48:55.039Z,10.40
2022-08-26T12:51:03.601Z,10.37
2022-08-26T12:53:22.579Z,11.13
2022-08-26T12:55:40.829Z,15.10
2022-08-26T12:57:50.228Z,10.00
2022-08-26T13:00:36.707Z,14.30
2022-08-26T13:02:44.565Z,9.90
2022-08-26T13:05:01.183Z,10.60
2022-08-26T13:07:17.251Z,10.17
2022-08-26T13:09:33.999Z,9.00
2022-08-26T13:12:02.315Z,9.60
2022-08-26T13:14:12.611Z,9.87
2022-08-26T13:16:29.329Z,8.97
2022-08-26T13:18:37.598Z,10.97
2022-08-26T13:20:49.162Z,10.20
2022-08-26T13:22:59.067Z,8.70
2022-08-26T13:25:07.959Z,10.30
2022-08-26T13:27:20.751Z,10.40
2022-08-26T13:29:28.737Z,10.00
2022-08-26T13:31:41.526Z,11.63
2022-08-26T13:33:49.945Z,9.50
2022-08-26T13:35:58.295Z,10.50
2022-08-26T13:38:09.025Z,9.43
2022-08-26T13:40:17.319Z,10.07
2022-08-26T13:42:25.565Z,13.23
2022-08-26T13:44:33.545Z,9.60
2022-08-26T13:48:53.484Z,10.60
2022-08-26T13:51:02.717Z,10.07
2022-08-26T13:53:17.309Z,9.50
2022-08-26T13:55:25.249Z,9.63
2022-08-26T13:57:33.652Z,12.07
2022-08-26T13:59:41.680Z,8.90
2022-08-26T14:01:52.550Z,10.40
2022-08-26T14:04:02.610Z,11.67
2022-08-26T14:06:10.857Z,9.67
2022-08-26T14:08:20.154Z,9.17
2022-08-26T14:10:29.245Z,10.10
2022-08-26T14:12:37.043Z,12.00
2022-08-26T14:14:48.256Z,10.60
2022-08-26T14:17:00.404Z,9.73
2022-08-26T14:19:10.313Z,12.30
2022-08-26T14:21:18.415Z,11.40
2022-08-26T14:23:26.287Z,11.77
2022-08-26T14:25:34.223Z,9.20
2022-08-26T14:27:42.902Z,9.60
2022-08-26T14:29:52.369Z,12.77
2022-08-26T14:32:15.213Z,10.57
2022-08-26T14:34:23.210Z,10.17
2022-08-26T14:36:32.433Z,9.07
2022-08-26T14:38:40.452Z,10.10
2022-08-26T14:40:48.448Z,9.80
2022-08-26T14:42:58.897Z,9.50
2022-08-26T14:45:11.559Z,11.17
2022-08-26T14:47:22.708Z,11.80
2022-08-26T14:49:31.615Z,11.70
2022-08-26T14:51:40.747Z,10.43
2022-08-26T14:54:01.014Z,9.67
2022-08-26T14:56:09.723Z,10.43
2022-08-26T14:58:20.187Z,8.97
2022-08-26T15:00:28.590Z,9.83
2022-08-26T15:02:39.845Z,9.60
2022-08-26T15:04:47.802Z,9.57
2022-08-26T15:06:59.750Z,9.60
2022-08-26T15:09:08.610Z,10.13
2022-08-26T15:11:18.342Z,11.73
2022-08-26T15:13:26.274Z,10.17
2022-08-26T15:15:34.317Z,10.50
2022-08-26T15:17:45.131Z,12.53
2022-08-26T15:19:53.513Z,13.03
2022-08-26T15:22:01.531Z,11.40
2022-08-26T15:24:09.757Z,9.67
2022-08-26T15:26:18.724Z,9.70
2022-08-26T15:28:26.550Z,8.77
2022-08-26T15:30:34.726Z,9.03
2022-08-26T15:32:45.519Z,8.17
2022-08-26T15:34:53.449Z,9.30
2022-08-26T15:37:02.129Z,8.90
2022-08-26T15:39:10.544Z,10.83
2022-08-26T15:41:20.044Z,9.17
2022-08-26T15:43:29.827Z,7.60
2022-08-26T15:45:37.803Z,8.60
2022-08-26T15:48:00.871Z,9.03
2022-08-26T15:50:11.101Z,9.30
2022-08-26T15:52:19.071Z,8.57
2022-08-26T15:54:28.392Z,8.27
2022-08-26T15:56:47.999Z,8.50
2022-08-26T15:58:56.736Z,9.73
2022-08-26T16:01:04.710Z,8.53
2022-08-26T16:03:15.196Z,9.60
2022-08-26T16:05:23.065Z,8.60
2022-08-26T16:07:30.991Z,8.53
2022-08-26T16:09:38.911Z,8.60
2022-08-26T16:11:47.062Z,9.43
2022-08-26T16:13:55.433Z,9.77
2022-08-26T16:16:03.536Z,9.30
2022-08-26T16:18:15.677Z,9.43
2022-08-26T16:20:23.856Z,8.97
2022-08-26T16:22:33.283Z,8.57
2022-08-26T16:24:41.456Z,8.20
2022-08-26T16:26:49.269Z,7.80
2022-08-26T16:28:57.294Z,8.47
2022-08-26T16:31:05.312Z,7.80
2022-08-26T16:33:29.560Z,7.00
2022-08-26T16:35:37.776Z,7.80
2022-08-26T16:37:45.948Z,7.35
2022-08-26T16:39:53.919Z,7.78
2022-08-26T16:42:01.751Z,6.40
2022-08-26T16:44:12.156Z,5.20
2022-08-26T16:46:22.297Z,6.03
2022-08-26T16:48:32.940Z,6.60
2022-08-26T16:50:43.070Z,5.68
2022-08-26T16:52:55.775Z,6.20
2022-08-26T16:55:04.950Z,7.13
2022-08-26T16:57:14.223Z,6.75
2022-08-26T16:59:22.421Z,7.15
2022-08-26T17:01:31.444Z,8.10
2022-08-26T17:03:41.888Z,7.75
2022-08-26T17:05:49.913Z,8.10
2022-08-26T17:07:58.905Z,8.48
2022-08-26T17:10:07.815Z,7.25
2022-08-26T17:12:15.786Z,8.45
2022-08-26T17:14:24.165Z,7.95
2022-08-26T17:16:32.200Z,8.00
2022-08-26T17:18:43.557Z,8.25
2022-08-26T17:20:54.006Z,8.30
2022-08-26T17:23:02.123Z,8.40
2022-08-26T17:25:16.724Z,8.60
2022-08-26T17:27:24.743Z,7.30
2022-08-26T17:29:32.627Z,7.45
2022-08-26T17:31:40.633Z,6.15
2022-08-26T17:33:55.649Z,5.72
2022-08-26T17:36:03.953Z,8.35
2022-08-26T17:38:12.045Z,6.70
2022-08-26T17:40:23.061Z,7.18
2022-08-26T17:42:31.877Z,7.13
2022-08-26T17:44:39.844Z,7.70
2022-08-26T17:46:47.842Z,7.40
2022-08-26T17:48:58.648Z,7.07
2022-08-26T17:51:10.171Z,6.20
2022-08-26T17:53:19.076Z,6.50
2022-08-26T17:55:27.284Z,5.75
2022-08-26T17:57:40.482Z,6.57
2022-08-26T17:59:49.114Z,7.13
2022-08-26T18:02:01.477Z,5.75
2022-08-26T18:04:13.646Z,5.00
2022-08-26T18:06:23.643Z,4.75
2022-08-26T18:08:32.071Z,4.65
2022-08-26T18:10:40.242Z,4.68
2022-08-26T18:12:48.593Z,4.43
2022-08-26T18:14:56.529Z,4.85
2022-08-26T18:17:05.191Z,4.60
2022-08-26T18:19:15.746Z,4.53
2022-08-26T18:21:28.644Z,3.60
2022-08-26T18:23:38.478Z,4.55
2022-08-26T18:25:47.033Z,5.30
2022-08-26T18:27:58.093Z,7.68
2022-08-26T18:30:07.845Z,6.75
2022-08-26T18:32:18.132Z,6.95
2022-08-26T18:34:29.451Z,6.20
2022-08-26T18:36:40.279Z,7.18
2022-08-26T18:38:50.305Z,7.85
2022-08-26T18:40:58.526Z,6.15
2022-08-26T18:43:06.566Z,6.10
2022-08-26T18:45:16.038Z,5.95
2022-08-26T18:47:24.175Z,8.02
2022-08-26T18:49:34.930Z,8.35
2022-08-26T18:51:43.691Z,9.00
2022-08-26T18:53:51.860Z,8.55
2022-08-26T18:55:59.862Z,8.65
2022-08-26T18:58:07.651Z,8.82
2022-08-26T19:00:17.567Z,10.60
2022-08-26T19:02:27.402Z,9.15
2022-08-26T19:04:41.358Z,9.27
2022-08-26T19:06:51.061Z,9.98
2022-08-26T19:09:00.278Z,10.75
2022-08-26T19:11:08.734Z,12.00
2022-08-26T19:13:17.174Z,10.45
2022-08-26T19:15:25.393Z,9.73
2022-08-26T19:17:33.497Z,11.13
2022-08-26T19:19:55.083Z,10.57
2022-08-26T19:22:03.209Z,11.68
2022-08-26T19:24:15.752Z,11.05
2022-08-26T19:26:24.322Z,11.57
2022-08-26T19:28:32.585Z,12.32
2022-08-26T19:30:42.119Z,12.57
2022-08-26T19:32:51.195Z,12.05
2022-08-26T19:35:01.641Z,13.30
2022-08-26T19:37:09.444Z,12.88
2022-08-26T19:39:17.471Z,12.60
2022-08-26T19:41:40.152Z,12.80
2022-08-26T19:43:48.229Z,12.27
2022-08-26T19:45:57.004Z,13.18
2022-08-26T19:48:11.436Z,12.98
2022-08-26T19:50:22.465Z,12.88
2022-08-26T19:52:33.391Z,13.85
2022-08-26T19:54:49.626Z,13.88
2022-08-26T19:56:57.514Z,13.60
2022-08-26T19:59:06.007Z,12.60
2022-08-26T20:01:15.052Z,13.90
2022-08-26T20:03:23.924Z,13.13
2022-08-26T20:05:34.416Z,12.77
2022-08-26T20:07:43.310Z,12.48
2022-08-26T20:09:51.887Z,12.07
2022-08-26T20:12:00.196Z,13.73
2022-08-26T20:14:08.443Z,13.25
2022-08-26T20:16:17.072Z,12.88
2022-08-26T20:18:37.879Z,13.75
2022-08-26T20:21:01.892Z,12.85
2022-08-26T20:23:09.682Z,12.48
2022-08-26T20:25:17.922Z,13.40
2022-08-26T20:27:37.804Z,13.18
2022-08-26T20:29:50.341Z,13.02
2022-08-26T20:32:01.777Z,12.13
2022-08-26T20:34:10.034Z,13.38
2022-08-26T20:36:21.508Z,12.07
2022-08-26T20:38:29.390Z,11.15
2022-08-26T20:40:37.392Z,12.63
2022-08-26T20:42:45.513Z,12.68
2022-08-26T20:44:54.205Z,11.68
2022-08-26T20:47:03.045Z,12.90
2022-08-26T20:49:11.381Z,13.00
2022-08-26T20:51:23.002Z,12.77
2022-08-26T20:53:31.858Z,11.95
2022-08-26T20:55:39.649Z,12.27
2022-08-26T20:57:47.532Z,13.20
2022-08-26T20:59:55.332Z,13.05
2022-08-26T21:02:03.175Z,12.65
2022-08-26T21:04:13.480Z,12.38
2022-08-26T21:06:24.447Z,14.70
2022-08-26T21:08:33.377Z,15.05
2022-08-26T21:10:41.681Z,13.93
2022-08-26T21:12:49.801Z,14.60
2022-08-26T21:14:58.333Z,15.00
2022-08-26T21:17:06.930Z,14.40
2022-08-26T21:19:18.042Z,15.05
2022-08-26T21:21:29.746Z,16.40
2022-08-26T21:23:38.179Z,15.88
2022-08-26T21:25:46.219Z,18.60
2022-08-26T21:27:55.745Z,18.90
2022-08-26T21:30:03.637Z,16.65
2022-08-26T21:32:12.487Z,18.50
2022-08-26T21:34:23.772Z,17.83
2022-08-26T21:36:34.481Z,18.05
2022-08-26T21:38:44.188Z,18.52
2022-08-26T21:41:00.995Z,18.85
2022-08-26T21:43:08.821Z,19.33
2022-08-26T21:45:22.406Z,20.83
2022-08-26T21:47:32.797Z,20.48
2022-08-26T21:49:40.751Z,21.65
2022-08-26T21:51:52.723Z,20.48
2022-08-26T21:54:01.516Z,23.70
2022-08-26T21:56:11.308Z,24.77
2022-08-26T21:58:19.419Z,23.38
2022-08-26T22:00:27.547Z,25.42
2022-08-26T22:02:35.440Z,24.60
2022-08-26T22:04:48.152Z,27.52
2022-08-26T22:07:00.370Z,28.35
2022-08-26T22:09:08.298Z,29.35
2022-08-26T22:11:17.957Z,27.38
2022-08-26T22:13:28.913Z,26.65
2022-08-26T22:15:40.399Z,26.58
2022-08-26T22:17:49.593Z,25.55
2022-08-26T22:19:58.209Z,23.65
2022-08-26T22:22:08.695Z,23.40
2022-08-26T22:24:17.014Z,21.30
2022-08-26T22:26:26.776Z,21.17
2022-08-26T22:28:35.194Z,18.77
2022-08-26T22:30:45.075Z,20.58
2022-08-26T22:32:53.242Z,18.83
2022-08-26T22:35:01.595Z,17.50
2022-08-26T22:37:21.773Z,20.90
2022-08-26T22:39:29.880Z,24.15
2022-08-26T22:41:38.025Z,24.38
2022-08-26T22:43:45.841Z,22.02
2022-08-26T22:45:54.718Z,22.88
2022-08-26T22:48:04.706Z,23.90
2022-08-26T22:50:13.188Z,24.77
2022-08-26T22:52:23.658Z,25.42
2022-08-26T22:54:31.819Z,26.90
2022-08-26T22:56:40.866Z,30.55
2022-08-26T22:58:48.745Z,30.45
2022-08-26T23:00:56.844Z,30.33
2022-08-26T23:03:07.788Z,31.50
2022-08-26T23:05:16.409Z,29.85
2022-08-26T23:07:26.892Z,28.75
2022-08-26T23:09:36.908Z,30.42
2022-08-26T23:11:46.291Z,29.65
2022-08-26T23:13:54.496Z,28.60
2022-08-26T23:16:03.768Z,29.13
2022-08-26T23:18:12.722Z,28.88
2022-08-26T23:20:21.573Z,27.08
2022-08-26T23:22:33.286Z,27.88
2022-08-26T23:24:42.355Z,28.35
2022-08-26T23:26:50.937Z,26.00
2022-08-26T23:28:58.799Z,25.13
2022-08-26T23:31:07.308Z,30.60
2022-08-26T23:33:16.102Z,26.38
2022-08-26T23:35:22.281Z,23.55
2022-08-26T23:37:36.633Z,23.35
2022-08-26T23:40:01.211Z,22.42
2022-08-26T23:42:09.468Z,20.25
2022-08-26T23:44:21.639Z,17.42
2022-08-26T23:46:29.701Z,18.63
2022-08-26T23:48:37.807Z,16.83
2022-08-26T23:50:57.999Z,16.88
2022-08-26T23:53:09.078Z,16.33
2022-08-26T23:55:17.074Z,15.40
2022-08-26T23:57:27.829Z,15.20
2022-08-26T23:59:35.696Z,14.90
